Time;durP1;ratioP1;P1;durP2;ratioP2;P2;SDS_P1;SDS_P2;PMS_P1;PMS_P2;Temp;Humidity;BMP_temperature;BMP_pressure;BME280_temperature;BME280_humidity;BME280_pressure;Samples;Min_cycle;Max_cycle;Signal;HPM_P1;HPM_P2
2023/07/21 00:01:50;;;;;;;2.65;1.65;;;;;;;13.97;100.00;100684.59;5055847;28;20047;-59
2023/07/21 00:04:17;;;;;;;2.72;2.38;;;;;;;14.05;100.00;100681.69;5046940;28;20135;-57
2023/07/21 00:06:43;;;;;;;4.00;1.80;;;;;;;14.13;100.00;100678.78;5047351;28;20032;-56
2023/07/21 00:09:12;;;;;;;2.58;1.85;;;;;;;14.21;100.00;100679.59;5050872;28;20029;-56
2023/07/21 00:11:38;;;;;;;1.98;1.45;;;;;;;14.28;100.00;100667.06;5048912;28;20116;-60
2023/07/21 00:14:07;;;;;;;11.27;1.70;;;;;;;14.31;100.00;100663.97;5052653;28;20053;-54
2023/07/21 00:16:33;;;;;;;10.63;2.40;;;;;;;14.36;100.00;100656.97;5054963;28;20390;-60
2023/07/21 00:18:59;;;;;;;3.13;2.00;;;;;;;14.44;100.00;100658.59;5051057;28;20033;-58
2023/07/21 00:21:24;;;;;;;2.75;1.75;;;;;;;14.50;100.00;100656.91;5054221;28;20134;-55
2023/07/21 00:23:50;;;;;;;2.88;1.58;;;;;;;14.52;100.00;100652.19;5049456;28;20136;-57
2023/07/21 00:26:16;;;;;;;2.72;1.73;;;;;;;14.54;100.00;100653.66;5057147;28;20052;-57
2023/07/21 00:28:42;;;;;;;2.15;1.40;;;;;;;14.61;100.00;100654.44;5049866;28;20104;-55
2023/07/21 00:31:07;;;;;;;6.85;2.05;;;;;;;14.63;100.00;100645.38;5053779;28;20036;-60
2023/07/21 00:33:32;;;;;;;2.13;1.40;;;;;;;14.61;100.00;100642.91;5057438;28;20032;-61
2023/07/21 00:35:58;;;;;;;2.08;1.65;;;;;;;14.63;100.00;100640.88;5055121;28;20055;-58
2023/07/21 00:38:25;;;;;;;5.47;2.72;;;;;;;14.64;100.00;100641.69;5059740;28;20029;-57
2023/07/21 00:40:50;;;;;;;2.70;1.45;;;;;;;14.57;100.00;100647.06;5053278;28;20040;-54
2023/07/21 00:43:16;;;;;;;1.58;1.30;;;;;;;14.58;100.00;100648.69;5049523;28;20029;-60
2023/07/21 00:45:42;;;;;;;3.78;1.83;;;;;;;14.57;100.00;100647.88;5055954;28;20036;-57
2023/07/21 00:48:09;;;;;;;2.55;1.95;;;;;;;14.57;100.00;100650.53;5050645;28;20040;-56
2023/07/21 00:50:45;;;;;;;5.00;2.25;;;;;;;14.52;100.00;100650.34;5053584;28;20116;-60
2023/07/21 00:53:11;;;;;;;4.07;2.50;;;;;;;14.53;100.00;100645.84;5054479;28;20147;-60
2023/07/21 00:55:38;;;;;;;8.13;2.13;;;;;;;14.49;100.00;100653.44;5047986;28;20445;-55
2023/07/21 00:58:04;;;;;;;2.30;1.75;;;;;;;14.47;100.00;100647.47;5061793;28;20040;-59
2023/07/21 01:00:31;;;;;;;2.83;2.22;;;;;;;14.43;100.00;100648.97;5051723;28;20033;-61
2023/07/21 01:02:57;;;;;;;2.95;1.77;;;;;;;14.50;100.00;100646.25;5053995;28;20119;-60
2023/07/21 01:05:24;;;;;;;5.10;2.13;;;;;;;14.59;100.00;100645.81;5056295;28;20059;-57
2023/07/21 01:07:50;;;;;;;4.80;2.97;;;;;;;14.63;100.00;100645.38;5056028;28;20025;-58
2023/07/21 01:10:16;;;;;;;2.67;2.17;;;;;;;14.68;100.00;100629.56;5058117;28;20048;-55
2023/07/21 01:12:42;;;;;;;2.75;1.60;;;;;;;14.66;100.00;100636.94;5061554;28;21460;-55
2023/07/21 01:15:07;;;;;;;4.70;2.35;;;;;;;14.66;100.00;100626.28;5056262;28;20036;-54
2023/07/21 01:17:34;;;;;;;2.70;2.22;;;;;;;14.66;100.00;100626.28;5056823;28;20147;-58
2023/07/21 01:20:00;;;;;;;3.65;2.88;;;;;;;14.61;100.00;100632.25;5048428;28;20040;-54
2023/07/21 01:22:35;;;;;;;3.08;2.35;;;;;;;14.56;100.00;100630.25;5051442;28;20037;-54
2023/07/21 01:25:09;;;;;;;4.13;2.65;;;;;;;14.54;100.00;100628.81;5051709;28;20040;-56
2023/07/21 01:27:39;;;;;;;5.90;3.40;;;;;;;14.51;100.00;100623.88;5041597;28;20036;-55
2023/07/21 01:30:07;;;;;;;4.30;2.60;;;;;;;14.44;100.00;100623.91;5048714;28;20174;-58
2023/07/21 01:32:36;;;;;;;3.67;2.50;;;;;;;14.42;100.00;100619.81;5053276;28;20091;-55
2023/07/21 01:35:02;;;;;;;3.10;2.65;;;;;;;14.33;100.00;100619.25;5053730;28;20032;-56
2023/07/21 01:37:27;;;;;;;6.78;3.85;;;;;;;14.33;100.00;100616.59;5055393;28;20098;-55
2023/07/21 01:39:55;;;;;;;7.43;3.05;;;;;;;14.29;100.00;100618.03;5052678;28;20068;-58
2023/07/21 01:42:21;;;;;;;5.47;2.85;;;;;;;14.26;100.00;100618.44;5060176;28;20571;-58
2023/07/21 01:44:47;;;;;;;5.82;3.65;;;;;;;14.28;100.00;100629.75;5047383;28;20032;-54
2023/07/21 01:47:12;;;;;;;5.15;3.17;;;;;;;14.29;100.00;100626.03;5059471;28;20059;-52
2023/07/21 01:49:38;;;;;;;4.75;2.50;;;;;;;14.29;100.00;100612.69;5063690;28;20366;-57
2023/07/21 01:52:04;;;;;;;4.38;2.63;;;;;;;14.22;100.00;100626.03;5062889;28;20748;-55
2023/07/21 01:54:36;;;;;;;3.15;2.28;;;;;;;14.16;100.00;100622.38;5064529;28;20075;-54
2023/07/21 01:57:06;;;;;;;5.32;3.25;;;;;;;14.09;100.00;100621.56;5053261;28;20151;-59
2023/07/21 01:59:32;;;;;;;3.50;2.28;;;;;;;13.94;100.00;100621.84;5050237;28;20036;-54
2023/07/21 02:01:57;;;;;;;3.58;2.83;;;;;;;13.86;100.00;100626.56;5060396;28;20051;-57
2023/07/21 02:04:23;;;;;;;2.70;2.47;;;;;;;13.83;100.00;100625.16;5047069;28;20362;-57
2023/07/21 02:06:49;;;;;;;3.47;2.55;;;;;;;13.79;100.00;100615.13;5050055;28;21041;-58
2023/07/21 02:09:15;;;;;;;5.10;3.22;;;;;;;13.71;100.00;100622.31;5062464;28;20600;-55
2023/07/21 02:11:42;;;;;;;4.45;2.63;;;;;;;13.65;100.00;100617.78;5055866;28;20280;-57
2023/07/21 02:14:07;;;;;;;3.85;2.58;;;;;;;13.63;100.00;100617.22;5061530;28;20029;-57
2023/07/21 02:16:33;;;;;;;7.93;3.13;;;;;;;13.59;100.00;100615.16;5051244;28;20031;-58
2023/07/21 02:18:58;;;;;;;5.20;2.85;;;;;;;13.46;100.00;100614.16;5058934;28;20036;-62
2023/07/21 02:21:23;;;;;;;7.13;4.07;;;;;;;13.37;100.00;100614.56;5054068;28;20506;-59
2023/07/21 02:23:49;;;;;;;3.40;2.78;;;;;;;13.27;100.00;100615.00;5043248;28;20508;-56
2023/07/21 02:26:14;;;;;;;4.93;3.25;;;;;;;13.22;100.00;100617.41;5055764;28;20504;-55
2023/07/21 02:28:41;;;;;;;3.15;2.63;;;;;;;13.04;100.00;100616.19;5057923;28;20025;-53
2023/07/21 02:31:07;;;;;;;2.67;2.20;;;;;;;13.05;100.00;100617.00;5059503;28;20078;-56
2023/07/21 02:33:35;;;;;;;4.72;3.50;;;;;;;12.92;100.00;100622.31;5062555;28;20591;-57
2023/07/21 02:36:03;;;;;;;6.20;4.07;;;;;;;12.84;100.00;100625.97;5052554;28;20115;-53
2023/07/21 02:38:29;;;;;;;2.72;2.50;;;;;;;12.76;100.00;100619.00;5049602;28;20033;-58
2023/07/21 02:40:55;;;;;;;2.85;2.10;;;;;;;12.68;100.00;100624.53;5053396;28;20042;-55
2023/07/21 02:43:23;;;;;;;3.97;3.00;;;;;;;12.55;100.00;100621.81;5057651;28;20028;-57
2023/07/21 02:45:53;;;;;;;5.13;3.05;;;;;;;12.30;100.00;100619.69;5061071;28;20485;-53
2023/07/21 02:48:19;;;;;;;3.45;2.50;;;;;;;11.56;100.00;100625.59;5045170;28;20032;-51
2023/07/21 02:50:48;;;;;;;4.57;2.63;;;;;;;11.85;100.00;100635.19;5059271;28;20035;-56
2023/07/21 02:53:13;;;;;;;4.00;2.55;;;;;;;11.89;100.00;100625.81;5059093;28;20028;-58
2023/07/21 02:55:40;;;;;;;5.00;3.38;;;;;;;12.00;100.00;100627.94;5064168;28;20033;-53
2023/07/21 02:58:05;;;;;;;3.72;1.85;;;;;;;11.92;100.00;100621.97;5056896;28;20040;-55
2023/07/21 03:00:31;;;;;;;4.82;3.25;;;;;;;11.87;100.00;100621.72;5060830;28;20025;-54
2023/07/21 03:02:56;;;;;;;5.75;3.10;;;;;;;11.80;100.00;100634.97;5044541;28;20616;-57
2023/07/21 03:05:21;;;;;;;7.72;2.60;;;;;;;11.75;100.00;100635.53;5065529;28;20029;-53
2023/07/21 03:07:47;;;;;;;6.07;3.88;;;;;;;11.69;100.00;100623.00;5063052;28;20052;-55
2023/07/21 03:10:12;;;;;;;4.05;2.83;;;;;;;11.74;100.00;100631.22;5059730;28;20073;-53
2023/07/21 03:12:38;;;;;;;5.53;2.80;;;;;;;11.71;100.00;100634.28;5054778;28;20036;-52
2023/07/21 03:15:04;;;;;;;6.75;3.22;;;;;;;11.58;100.00;100635.00;5058017;28;20033;-56
2023/07/21 03:17:30;;;;;;;3.85;2.40;;;;;;;11.49;100.00;100638.03;5054409;28;20068;-53
2023/07/21 03:19:55;;;;;;;6.53;3.25;;;;;;;11.47;100.00;100634.72;5057378;28;20211;-54
2023/07/21 03:22:20;;;;;;;4.13;2.42;;;;;;;11.40;100.00;100629.34;5055486;28;20482;-56
2023/07/21 03:24:46;;;;;;;5.95;3.28;;;;;;;11.26;100.00;100635.59;5063838;28;20035;-61
2023/07/21 03:27:12;;;;;;;6.32;3.42;;;;;;;11.14;100.00;100638.75;5052900;28;20405;-56
2023/07/21 03:29:38;;;;;;;4.20;2.75;;;;;;;11.15;100.00;100634.25;5050629;28;20664;-56
2023/07/21 03:32:04;;;;;;;4.50;2.60;;;;;;;11.18;100.00;100635.69;5056533;28;20108;-58
2023/07/21 03:34:29;;;;;;;3.80;3.35;;;;;;;11.09;100.00;100633.19;5057896;28;20162;-59
2023/07/21 03:36:54;;;;;;;4.65;3.55;;;;;;;11.03;100.00;100633.97;5055248;28;20119;-60
2023/07/21 03:39:23;;;;;;;5.15;2.70;;;;;;;10.94;100.00;100635.09;5047451;28;20136;-55
2023/07/21 03:41:48;;;;;;;4.38;2.63;;;;;;;10.81;100.00;100637.59;5059475;28;20066;-55
2023/07/21 03:44:14;;;;;;;2.42;2.20;;;;;;;10.80;100.00;100634.13;5052772;28;20048;-51
2023/07/21 03:46:39;;;;;;;4.65;3.35;;;;;;;10.80;100.00;100633.31;5059209;28;20032;-52
2023/07/21 03:49:05;;;;;;;3.97;3.22;;;;;;;10.74;100.00;100634.06;5044985;28;20033;-59
2023/07/21 03:51:30;;;;;;;5.25;2.97;;;;;;;10.67;100.00;100636.66;5055465;28;20537;-56
2023/07/21 03:53:58;;;;;;;6.22;3.10;;;;;;;10.55;100.00;100631.00;5057807;28;20025;-55
2023/07/21 03:56:24;;;;;;;4.22;3.10;;;;;;;10.45;100.00;100633.97;5060709;28;20021;-54
2023/07/21 03:58:50;;;;;;;5.25;2.75;;;;;;;10.42;100.00;100641.47;5057549;28;20113;-52
2023/07/21 04:01:16;;;;;;;6.47;3.00;;;;;;;10.42;100.00;100636.97;5054877;28;20115;-52
2023/07/21 04:03:41;;;;;;;5.20;2.28;;;;;;;10.46;100.00;100642.75;5062721;28;20049;-54
2023/07/21 04:06:10;;;;;;;3.13;2.00;;;;;;;10.46;100.00;100640.09;5051558;28;20043;-57
2023/07/21 04:08:35;;;;;;;3.30;2.78;;;;;;;10.46;100.00;100634.78;5062041;28;20044;-55
2023/07/21 04:11:01;;;;;;;2.83;2.63;;;;;;;10.43;100.00;100643.94;5050438;28;20107;-54
2023/07/21 04:13:26;;;;;;;4.93;2.72;;;;;;;10.32;100.00;100636.44;5059888;28;20106;-54
2023/07/21 04:15:52;;;;;;;3.85;2.00;;;;;;;10.15;100.00;100649.06;5058124;28;20027;-55
2023/07/21 04:18:18;;;;;;;2.90;2.42;;;;;;;10.33;100.00;100646.06;5052060;28;20032;-57
2023/07/21 04:20:43;;;;;;;5.32;2.70;;;;;;;10.33;100.00;100640.75;5058537;28;20095;-52
2023/07/21 04:23:09;;;;;;;6.57;2.40;;;;;;;10.34;100.00;100634.44;5065152;28;20138;-53
2023/07/21 04:25:35;;;;;;;3.15;2.10;;;;;;;10.28;100.00;100644.97;5052712;28;20148;-55
2023/07/21 04:28:01;;;;;;;5.57;3.35;;;;;;;10.24;100.00;100650.59;5053061;28;20222;-57
2023/07/21 04:30:26;;;;;;;6.13;2.90;;;;;;;10.27;100.00;100641.44;5055493;28;20533;-56
2023/07/21 04:32:52;;;;;;;4.60;2.70;;;;;;;10.26;100.00;100645.94;5050359;28;20024;-56
2023/07/21 04:35:17;;;;;;;4.93;2.92;;;;;;;10.25;100.00;100654.91;5058708;28;20638;-52
2023/07/21 04:37:43;;;;;;;4.65;2.30;;;;;;;10.19;100.00;100645.03;5056356;28;20458;-56
2023/07/21 04:40:10;;;;;;;4.43;3.10;;;;;;;10.25;100.00;100643.50;5052449;28;20146;-55
2023/07/21 04:42:36;;;;;;;2.83;2.15;;;;;;;10.19;100.00;100638.91;5057695;28;20031;-57
2023/07/21 04:45:01;;;;;;;3.42;2.17;;;;;;;10.23;100.00;100646.31;5058242;28;20024;-56
2023/07/21 04:47:27;;;;;;;4.13;2.92;;;;;;;10.22;100.00;100647.31;5050712;28;20159;-51
2023/07/21 04:49:53;;;;;;;4.20;2.50;;;;;;;10.21;100.00;100645.66;5050175;28;20397;-57
2023/07/21 04:52:19;;;;;;;3.95;2.65;;;;;;;10.24;100.00;100642.63;5056804;28;20060;-55
2023/07/21 04:54:44;;;;;;;3.63;3.13;;;;;;;10.27;100.00;100638.81;5054014;28;20128;-54
2023/07/21 04:57:10;;;;;;;4.43;3.17;;;;;;;10.26;100.00;100647.78;5053671;28;20131;-53
2023/07/21 04:59:36;;;;;;;3.85;2.45;;;;;;;10.16;100.00;100639.28;5058080;28;20888;-56
2023/07/21 05:02:01;;;;;;;3.42;2.33;;;;;;;10.14;100.00;100650.06;5050211;28;20497;-57
2023/07/21 05:04:27;;;;;;;5.18;4.05;;;;;;;10.18;100.00;100643.38;5049935;28;20048;-52
2023/07/21 05:06:52;;;;;;;8.48;3.17;;;;;;;10.32;100.00;100647.06;5045904;28;20028;-52
2023/07/21 05:09:19;;;;;;;4.82;3.17;;;;;;;10.41;100.00;100650.44;5060213;28;20047;-55
2023/07/21 05:11:45;;;;;;;2.67;2.17;;;;;;;10.35;100.00;100652.00;5055866;28;20081;-55
2023/07/21 05:14:11;;;;;;;4.03;2.70;;;;;;;10.33;100.00;100647.91;5052662;28;20485;-55
2023/07/21 05:16:37;;;;;;;4.25;2.58;;;;;;;10.37;100.00;100638.56;5051193;28;20588;-55
2023/07/21 05:19:03;;;;;;;7.32;2.83;;;;;;;10.41;100.00;100642.47;5047594;28;20028;-57
2023/07/21 05:21:29;;;;;;;5.15;3.15;;;;;;;10.49;100.00;100637.06;5048295;28;20028;-55
2023/07/21 05:23:54;;;;;;;4.15;3.17;;;;;;;10.57;100.00;100644.91;5046809;28;20440;-54
2023/07/21 05:26:21;;;;;;;5.43;3.65;;;;;;;10.66;100.00;100642.94;5058048;28;20347;-53
2023/07/21 05:28:46;;;;;;;5.75;2.95;;;;;;;10.73;100.00;100641.19;5047044;28;20089;-55
2023/07/21 05:31:12;;;;;;;8.00;2.92;;;;;;;10.79;100.00;100640.47;5057405;28;20033;-50
2023/07/21 05:33:37;;;;;;;3.25;2.53;;;;;;;10.70;100.00;100642.41;5048604;28;20044;-53
2023/07/21 05:36:08;;;;;;;4.65;2.78;;;;;;;11.00;100.00;100646.78;5054119;28;20033;-54
2023/07/21 05:38:37;;;;;;;8.05;2.83;;;;;;;11.09;100.00;100643.78;5052355;28;20499;-53
2023/07/21 05:41:04;;;;;;;3.00;2.17;;;;;;;11.10;100.00;100641.97;5045673;28;20040;-52
2023/07/21 05:43:29;;;;;;;5.03;3.15;;;;;;;11.07;100.00;100645.00;5050831;28;20063;-55
2023/07/21 05:45:55;;;;;;;2.75;2.55;;;;;;;11.10;100.00;100645.47;5043400;28;20055;-54
2023/07/21 05:48:20;;;;;;;4.93;3.17;;;;;;;11.17;100.00;100639.38;5048205;28;20045;-54
2023/07/21 05:50:45;;;;;;;6.53;3.35;;;;;;;11.20;100.00;100639.81;5046389;28;20054;-56
2023/07/21 05:53:11;;;;;;;4.18;3.00;;;;;;;11.26;100.00;100636.41;5041887;28;20115;-53
2023/07/21 05:55:40;;;;;;;5.18;3.75;;;;;;;11.29;100.00;100643.16;5052338;28;20044;-53
2023/07/21 05:58:06;;;;;;;4.68;3.08;;;;;;;11.33;100.00;100644.41;5051622;28;20024;-56
2023/07/21 06:00:36;;;;;;;4.13;2.22;;;;;;;11.34;100.00;100641.56;5049202;28;20536;-52
2023/07/21 06:03:02;;;;;;;4.25;2.70;;;;;;;11.41;100.00;100641.63;5053161;28;20528;-53
2023/07/21 06:05:27;;;;;;;2.38;2.15;;;;;;;11.56;100.00;100639.72;5058541;28;20107;-54
2023/07/21 06:07:53;;;;;;;4.30;3.38;;;;;;;11.70;100.00;100639.78;5047246;28;20039;-55
2023/07/21 06:10:19;;;;;;;5.55;2.83;;;;;;;11.83;100.00;100647.03;5047824;28;20056;-52
2023/07/21 06:12:44;;;;;;;4.80;3.58;;;;;;;12.11;100.00;100647.03;5047717;28;20390;-55
2023/07/21 06:15:10;;;;;;;6.95;3.80;;;;;;;12.33;100.00;100647.72;5054026;28;20029;-51
2023/07/21 06:17:35;;;;;;;5.35;3.10;;;;;;;12.52;100.00;100648.81;5048297;28;20487;-51
2023/07/21 06:20:00;;;;;;;3.88;3.28;;;;;;;12.71;100.00;100655.22;5050221;28;20025;-49
2023/07/21 06:22:26;;;;;;;5.30;3.20;;;;;;;12.95;100.00;100654.66;5052018;28;20437;-50
2023/07/21 06:24:51;;;;;;;4.20;3.15;;;;;;;13.21;100.00;100656.50;5051646;28;20554;-53
2023/07/21 06:27:18;;;;;;;3.72;2.78;;;;;;;13.51;100.00;100654.31;5051142;28;20064;-53
2023/07/21 06:29:44;;;;;;;5.88;4.10;;;;;;;13.70;100.00;100644.63;5053205;28;20037;-52
2023/07/21 06:32:09;;;;;;;7.63;4.20;;;;;;;13.97;100.00;100649.94;5049956;28;20487;-54
2023/07/21 06:34:34;;;;;;;6.35;4.00;;;;;;;14.19;100.00;100637.13;5050853;28;20090;-54
2023/07/21 06:36:59;;;;;;;7.65;4.75;;;;;;;14.37;100.00;100641.78;5047323;28;20056;-53
2023/07/21 06:39:25;;;;;;;8.82;4.88;;;;;;;14.55;100.00;100639.25;5047277;28;20047;-52
2023/07/21 06:41:51;;;;;;;5.50;3.70;;;;;;;14.72;100.00;100644.13;5050920;28;20025;-55
2023/07/21 06:44:20;;;;;;;3.92;2.85;;;;;;;14.86;100.00;100643.00;5051604;28;20040;-55
2023/07/21 06:46:47;;;;;;;8.93;3.88;;;;;;;15.11;100.00;100637.69;5045795;28;20029;-58
2023/07/21 06:49:16;;;;;;;7.28;3.30;;;;;;;15.41;100.00;100631.69;5047361;28;20573;-57
2023/07/21 06:51:42;;;;;;;4.25;3.70;;;;;;;15.56;100.00;100628.69;5049099;28;20025;-55
2023/07/21 06:54:08;;;;;;;6.00;3.85;;;;;;;15.64;100.00;100626.56;5058383;28;20131;-52
2023/07/21 06:56:34;;;;;;;4.40;3.20;;;;;;;15.70;100.00;100619.53;5049442;28;20486;-56
2023/07/21 06:58:59;;;;;;;4.05;2.80;;;;;;;15.81;100.00;100624.13;5056055;28;20411;-57
2023/07/21 07:01:24;;;;;;;4.63;3.00;;;;;;;15.89;100.00;100625.69;5054885;28;20242;-57
2023/07/21 07:03:50;;;;;;;9.18;4.00;;;;;;;15.95;100.00;100618.66;5051773;28;20044;-54
2023/07/21 07:06:15;;;;;;;4.05;3.45;;;;;;;15.96;100.00;100620.28;5058809;28;20035;-52
2023/07/21 07:08:40;;;;;;;6.05;4.13;;;;;;;16.04;100.00;100620.00;5054674;28;20119;-53
2023/07/21 07:11:06;;;;;;;4.32;3.30;;;;;;;16.13;100.00;100618.63;5048219;28;20025;-57
2023/07/21 07:13:31;;;;;;;5.47;4.05;;;;;;;16.11;100.00;100612.72;5050501;28;20037;-55
2023/07/21 07:15:56;;;;;;;5.18;3.22;;;;;;;16.59;100.00;100622.56;5046078;28;20036;-63
2023/07/21 07:18:22;;;;;;;5.53;4.00;;;;;;;16.71;100.00;100618.09;5048830;28;20478;-63
2023/07/21 07:20:50;;;;;;;4.13;3.67;;;;;;;16.87;100.00;100618.50;5050930;28;20033;-61
2023/07/21 07:23:16;;;;;;;3.75;3.22;;;;;;;17.03;100.00;100622.38;5054059;28;20036;-62
2023/07/21 07:25:48;;;;;;;2.95;2.28;;;;;;;17.04;100.00;100619.50;5050886;28;20047;-58
2023/07/21 07:28:15;;;;;;;4.47;2.75;;;;;;;17.07;100.00;100623.56;5047824;28;20045;-59
2023/07/21 07:30:41;;;;;;;5.68;3.92;;;;;;;17.03;100.00;100612.47;5056392;28;20056;-57
2023/07/21 07:33:06;;;;;;;3.78;2.72;;;;;;;17.13;100.00;100623.44;5053938;28;20090;-57
2023/07/21 07:35:32;;;;;;;4.35;3.55;;;;;;;17.28;100.00;100624.88;5058998;28;20498;-63
2023/07/21 07:37:58;;;;;;;4.72;3.47;;;;;;;17.17;100.00;100613.09;5052538;28;20120;-63
2023/07/21 07:40:24;;;;;;;5.95;3.75;;;;;;;17.10;100.00;100615.06;5055390;28;20032;-61
2023/07/21 07:42:49;;;;;;;4.05;3.42;;;;;;;17.05;100.00;100618.44;5051442;28;20075;-63
2023/07/21 07:45:15;;;;;;;6.40;4.57;;;;;;;17.11;100.00;100617.50;5051576;28;20094;-65
2023/07/21 07:47:42;;;;;;;7.50;4.63;;;;;;;17.23;100.00;100614.84;5053658;28;20047;-61
2023/07/21 07:50:10;;;;;;;9.38;3.45;;;;;;;17.59;100.00;100613.81;5054497;28;20504;-62
2023/07/21 07:52:35;;;;;;;3.33;3.03;;;;;;;17.71;100.00;100615.66;5047061;28;20059;-59
2023/07/21 07:55:01;;;;;;;3.63;3.33;;;;;;;17.93;100.00;100616.69;5047689;28;20498;-63
2023/07/21 07:57:27;;;;;;;4.47;3.78;;;;;;;18.02;100.00;100614.50;5055361;28;20576;-64
2023/07/21 07:59:52;;;;;;;3.47;2.65;;;;;;;18.05;100.00;100609.44;5049755;28;20719;-63
2023/07/21 08:02:18;;;;;;;4.53;3.25;;;;;;;18.13;100.00;100616.31;5046612;28;20049;-62
2023/07/21 08:04:43;;;;;;;3.45;3.15;;;;;;;18.42;100.00;100609.09;5044954;28;20025;-64
2023/07/21 08:07:08;;;;;;;3.80;3.03;;;;;;;18.64;100.00;100609.25;5050958;28;20382;-62
2023/07/21 08:09:33;;;;;;;5.18;4.32;;;;;;;18.74;100.00;100601.38;5057665;28;20048;-65
2023/07/21 08:11:59;;;;;;;4.18;3.58;;;;;;;19.03;100.00;100605.91;5052587;28;20592;-62
2023/07/21 08:14:24;;;;;;;5.00;3.50;;;;;;;19.20;100.00;100595.94;5053074;28;20021;-61
2023/07/21 08:16:49;;;;;;;4.00;2.95;;;;;;;19.25;100.00;100598.72;5052929;28;20108;-60
2023/07/21 08:19:15;;;;;;;4.80;3.63;;;;;;;19.24;100.00;100607.84;5053025;28;20517;-60
2023/07/21 08:21:40;;;;;;;4.00;2.67;;;;;;;19.18;100.00;100616.91;5054827;28;20429;-61
2023/07/21 08:24:05;;;;;;;4.45;3.53;;;;;;;19.25;100.00;100614.03;5057763;28;20024;-50
2023/07/21 08:26:31;;;;;;;4.80;3.50;;;;;;;19.06;100.00;100619.66;5048388;28;20033;-67
2023/07/21 08:28:56;;;;;;;4.18;3.42;;;;;;;18.85;100.00;100617.69;5044756;28;20059;-50
2023/07/21 08:31:22;;;;;;;5.00;2.75;;;;;;;19.09;100.00;100615.66;5050290;28;20528;-65
2023/07/21 08:33:47;;;;;;;5.18;3.25;;;;;;;19.17;100.00;100610.69;5052630;28;20509;-62
2023/07/21 08:36:13;;;;;;;4.90;2.97;;;;;;;18.98;100.00;100612.00;5047409;28;20039;-65
2023/07/21 08:38:38;;;;;;;6.72;3.13;;;;;;;18.73;100.00;100609.66;5052250;28;20040;-67
2023/07/21 08:41:08;;;;;;;2.25;2.08;;;;;;;18.60;100.00;100610.75;5051803;28;20028;-64
2023/07/21 08:43:34;;;;;;;3.33;2.63;;;;;;;18.87;100.00;100610.19;5042189;28;20029;-64
2023/07/21 08:46:02;;;;;;;3.67;3.15;;;;;;;19.20;100.00;100606.69;5047665;28;20289;-62
2023/07/21 08:48:28;;;;;;;4.18;3.33;;;;;;;19.35;100.00;100617.69;5057415;28;20039;-65
2023/07/21 08:50:55;;;;;;;2.17;1.98;;;;;;;19.42;100.00;100609.47;5053611;28;20029;-65
2023/07/21 08:53:24;;;;;;;2.60;2.40;;;;;;;19.60;100.00;100621.81;5045568;28;20102;-65
2023/07/21 08:55:51;;;;;;;4.03;2.55;;;;;;;19.56;100.00;100618.78;5045666;28;20037;-65
2023/07/21 08:58:17;;;;;;;3.10;2.83;;;;;;;19.81;100.00;100621.06;5045234;28;20397;-61
2023/07/21 09:00:43;;;;;;;4.38;2.40;;;;;;;20.09;100.00;100608.50;5045800;28;20150;-66
2023/07/21 09:03:08;;;;;;;2.33;2.17;;;;;;;20.42;100.00;100614.78;5053233;28;20088;-65
2023/07/21 09:05:33;;;;;;;3.47;2.85;;;;;;;20.34;100.00;100617.91;5045419;28;20417;-65
2023/07/21 09:07:59;;;;;;;3.05;2.60;;;;;;;20.32;100.00;100615.50;5049483;28;20392;-64
2023/07/21 09:10:33;;;;;;;3.40;2.25;;;;;;;20.33;100.00;100608.22;5052951;28;20043;-66
2023/07/21 09:13:00;;;;;;;3.90;3.00;;;;;;;20.44;100.00;100599.97;5055471;28;20028;-67
2023/07/21 09:15:26;;;;;;;2.17;1.90;;;;;;;20.64;100.00;100604.81;5058226;28;20104;-65
2023/07/21 09:17:51;;;;;;;2.25;1.98;;;;;;;20.67;100.00;100598.09;5045937;28;20359;-58
2023/07/21 09:20:18;;;;;;;2.88;2.58;;;;;;;20.38;100.00;100602.91;5053978;28;20036;-62
2023/07/21 09:22:47;;;;;;;3.63;1.98;;;;;;;20.50;100.00;100606.25;5051742;28;20051;-63
2023/07/21 09:25:22;;;;;;;1.70;1.60;;;;;;;20.87;100.00;100603.66;5044716;28;20798;-62
2023/07/21 09:27:54;;;;;;;2.33;1.67;;;;;;;20.89;100.00;100603.44;5044513;28;20055;-65
2023/07/21 09:30:20;;;;;;;1.45;1.20;;;;;;;20.93;100.00;100599.13;5045099;28;20448;-53
2023/07/21 09:32:46;;;;;;;5.20;2.38;;;;;;;21.24;100.00;100604.75;5049760;28;20120;-58
2023/07/21 09:35:12;;;;;;;1.40;1.15;;;;;;;21.25;100.00;100598.31;5046809;28;20079;-55
2023/07/21 09:37:38;;;;;;;2.80;1.88;;;;;;;21.27;100.00;100609.63;5045362;28;20364;-67
2023/07/21 09:40:06;;;;;;;2.03;1.75;;;;;;;21.48;100.00;100605.25;5051418;28;20052;-64
2023/07/21 09:42:32;;;;;;;2.03;1.42;;;;;;;21.35;100.00;100599.19;5051674;28;20401;-65
2023/07/21 09:44:58;;;;;;;1.30;1.15;;;;;;;21.50;100.00;100597.69;5053856;28;20037;-55
2023/07/21 09:47:24;;;;;;;1.90;1.75;;;;;;;21.44;100.00;100601.44;5055027;28;20044;-65
2023/07/21 09:49:54;;;;;;;2.58;1.42;;;;;;;21.12;100.00;100605.75;5060608;28;20627;-60
2023/07/21 09:52:21;;;;;;;3.15;1.70;;;;;;;21.62;100.00;100609.09;5044786;28;20044;-64
2023/07/21 09:55:05;;;;;;;1.50;1.15;;;;;;;21.76;100.00;100598.63;5047892;28;20036;-58
2023/07/21 09:57:34;;;;;;;1.08;1.00;;;;;;;21.89;100.00;100608.97;5046920;28;20048;-60
2023/07/21 10:00:02;;;;;;;1.00;0.82;;;;;;;21.84;100.00;100608.09;5058243;28;20119;-65
2023/07/21 10:02:29;;;;;;;0.77;0.20;;;;;;;21.87;100.00;100600.31;5044102;28;20545;-63
2023/07/21 10:04:55;;;;;;;1.42;0.98;;;;;;;21.49;100.00;100602.25;5054113;28;20135;-66
2023/07/21 10:07:21;;;;;;;1.55;0.55;;;;;;;21.37;100.00;100608.91;5058222;28;20029;-62
2023/07/21 10:09:49;;;;;;;1.60;1.00;;;;;;;21.82;99.85;100599.47;5055918;28;20024;-63
2023/07/21 10:12:16;;;;;;;1.02;0.55;;;;;;;22.25;99.35;100590.19;5050376;28;20032;-67
2023/07/21 10:14:44;;;;;;;0.40;0.40;;;;;;;22.43;98.86;100607.81;5053624;28;20619;-59
2023/07/21 10:17:10;;;;;;;0.57;0.40;;;;;;;21.96;96.21;100601.41;5050212;28;20104;-61
2023/07/21 10:19:42;;;;;;;0.73;0.73;;;;;;;21.98;97.30;100603.88;5048845;28;20040;-64
2023/07/21 10:22:22;;;;;;;0.50;0.50;;;;;;;21.68;94.92;100604.53;5053019;28;20033;-62
2023/07/21 10:24:50;;;;;;;0.75;0.47;;;;;;;21.18;98.05;100612.00;5055588;28;20469;-58
2023/07/21 10:27:21;;;;;;;1.80;1.13;;;;;;;21.31;99.39;100610.75;5052155;28;20040;-65
2023/07/21 10:30:18;;;;;;;0.45;0.40;;;;;;;21.65;98.72;100615.84;5050968;28;20496;-64
2023/07/21 10:32:43;;;;;;;0.75;0.75;;;;;;;21.48;98.27;100605.25;5047759;28;20087;-62
2023/07/21 10:35:35;;;;;;;1.85;0.90;;;;;;;21.34;99.07;100604.84;5054077;28;20481;-64
2023/07/21 10:38:18;;;;;;;;;;;;;;;21.48;96.69;100607.94;5051871;28;20194;-60
2023/07/21 10:40:45;;;;;;;0.57;0.45;;;;;;;21.49;99.50;100607.66;5050534;28;20293;-63
2023/07/21 10:43:11;;;;;;;0.50;0.50;;;;;;;21.33;99.73;100611.31;5054955;28;20031;-64
2023/07/21 10:45:37;;;;;;;1.17;1.05;;;;;;;21.32;100.00;100606.97;5049863;28;20036;-62
2023/07/21 10:48:11;;;;;;;1.52;0.93;;;;;;;21.03;100.00;100601.91;5056594;28;20049;-60
2023/07/21 10:50:38;;;;;;;0.93;0.93;;;;;;;20.98;100.00;100599.16;5050689;28;20486;-64
2023/07/21 10:53:05;;;;;;;3.40;0.60;;;;;;;21.12;100.00;100600.38;5052170;28;20458;-64
2023/07/21 10:55:30;;;;;;;0.82;0.70;;;;;;;21.44;100.00;100591.44;5056494;28;20135;-63
2023/07/21 10:57:56;;;;;;;1.33;0.60;;;;;;;21.58;100.00;100588.28;5054913;28;20029;-60
2023/07/21 11:00:22;;;;;;;0.60;0.57;;;;;;;21.52;99.48;100593.66;5053272;28;20392;-63
2023/07/21 11:02:53;;;;;;;2.10;1.02;;;;;;;21.72;100.00;100589.44;5058943;28;20077;-63
2023/07/21 11:05:19;;;;;;;0.60;0.57;;;;;;;21.63;99.28;100599.91;5052121;28;20037;-61
2023/07/21 11:07:44;;;;;;;1.02;0.75;;;;;;;21.58;100.00;100594.47;5051030;28;20375;-63
2023/07/21 11:10:09;;;;;;;1.35;0.82;;;;;;;21.46;100.00;100593.91;5047729;28;20044;-61
2023/07/21 11:12:36;;;;;;;1.67;0.85;;;;;;;21.50;100.00;100593.13;5048191;28;20033;-62
2023/07/21 11:15:03;;;;;;;0.85;0.85;;;;;;;21.45;100.00;100600.34;5057664;28;20039;-63